TAF SBKP
SBKP 280400Z 2806/2906 12008KT CAVOK TN20/2809Z TX31/2818Z BECMG 2808/2810 04005KT BECMG 2810/2812 33007KT TEMPO 2814/2819 32013G27KT 9999 FEW040 BECMG 2819/2821 24008KT BECMG 2821/2823 13007KT BECMG 2903/2905 30008KT RMK PGO=
METAR SBKP
SBKP 280900Z 10004KT 7000 3400E FEW030 19/18 Q1008=
SBKP 280800Z 10006KT 7000 FEW020 19/17 Q1008=
SBKP 280700Z 10006KT CAVOK 19/18 Q1007=
SBKP 280600Z 11008KT CAVOK 20/18 Q1007=
SBKP 280500Z 12008KT CAVOK 20/18 Q1008=
WC SBKP
WS SBKP
WV SBKP